createdAt,value
2019-02-04T00:01:59.595Z,99.62
2019-02-04T00:04:45.172Z,99.56
2019-02-04T00:07:30.608Z,99.50
2019-02-04T00:10:15.955Z,99.26
2019-02-04T00:13:01.303Z,99.26
2019-02-04T00:15:46.764Z,99.35
2019-02-04T00:18:34.604Z,99.27
2019-02-04T00:21:20.193Z,99.22
2019-02-04T00:24:05.970Z,99.07
2019-02-04T00:26:52.012Z,99.16
2019-02-04T00:29:37.746Z,99.16
2019-02-04T00:32:23.091Z,98.81
2019-02-04T00:35:08.691Z,98.68
2019-02-04T00:37:54.545Z,98.67
2019-02-04T00:40:40.478Z,98.67
2019-02-04T00:43:26.028Z,98.78
2019-02-04T00:46:11.449Z,98.68
2019-02-04T00:48:56.845Z,98.54
2019-02-04T00:51:42.909Z,98.59
2019-02-04T00:54:28.241Z,98.59
2019-02-04T00:57:14.212Z,98.55
2019-02-04T00:59:59.577Z,98.30
2019-02-04T01:02:45.009Z,98.30
2019-02-04T01:05:30.480Z,98.58
2019-02-04T01:08:16.401Z,98.41
2019-02-04T01:11:01.936Z,98.14
2019-02-04T01:13:47.770Z,98.14
2019-02-04T01:16:33.127Z,98.32
2019-02-04T01:19:18.723Z,98.29
2019-02-04T01:22:04.879Z,98.40
2019-02-04T01:24:50.236Z,98.40
2019-02-04T01:27:35.547Z,98.65
2019-02-04T01:30:21.233Z,98.60
2019-02-04T01:33:06.954Z,98.30
2019-02-04T01:35:52.277Z,98.30
2019-02-04T01:38:37.758Z,98.47
2019-02-04T01:41:23.158Z,98.42
2019-02-04T01:44:08.637Z,98.42
2019-02-04T01:46:54.189Z,98.10
2019-02-04T01:49:39.461Z,98.10
2019-02-04T01:52:24.866Z,98.24
2019-02-04T01:55:10.940Z,98.32
2019-02-04T01:57:56.709Z,98.36
2019-02-04T02:00:42.124Z,98.21
2019-02-04T02:03:27.765Z,98.25
2019-02-04T02:06:13.624Z,98.31
2019-02-04T02:08:59.694Z,98.25
2019-02-04T02:11:45.070Z,98.25
2019-02-04T02:14:30.552Z,98.42
2019-02-04T02:17:26.035Z,98.48
2019-02-04T02:20:05.282Z,98.47
2019-02-04T02:22:51.097Z,98.53
2019-02-04T02:25:36.459Z,98.54
2019-02-04T02:28:22.390Z,98.59
2019-02-04T02:31:07.774Z,98.63
2019-02-04T02:33:53.106Z,98.70
2019-02-04T02:36:38.689Z,98.90
2019-02-04T02:39:24.017Z,98.91
2019-02-04T02:42:09.970Z,98.91
2019-02-04T02:44:56.322Z,98.79
2019-02-04T02:47:41.762Z,98.73
2019-02-04T02:50:27.299Z,98.96
2019-02-04T02:53:12.635Z,98.96
2019-02-04T02:55:58.565Z,98.78
2019-02-04T02:58:43.946Z,98.86
2019-02-04T03:01:29.294Z,98.84
2019-02-04T03:04:14.711Z,98.87
2019-02-04T03:06:59.986Z,98.99
2019-02-04T03:09:45.574Z,99.12
2019-02-04T03:12:30.925Z,99.06
2019-02-04T03:15:16.228Z,99.16
2019-02-04T03:18:01.529Z,99.40
2019-02-04T03:20:46.856Z,99.50
2019-02-04T03:23:32.266Z,99.59
2019-02-04T03:26:18.174Z,99.64
2019-02-04T03:29:03.558Z,99.76
2019-02-04T03:31:48.916Z,99.91
2019-02-04T03:34:34.238Z,99.96
2019-02-04T03:37:19.830Z,100.00
2019-02-04T03:40:05.678Z,100.00
2019-02-04T03:42:51.574Z,100.00
2019-02-04T03:45:37.677Z,100.00
2019-02-04T03:48:23.554Z,100.00
2019-02-04T03:51:08.918Z,100.00
2019-02-04T03:53:54.391Z,100.00
2019-02-04T03:56:39.667Z,100.00
2019-02-04T03:59:25.148Z,100.00
2019-02-04T04:02:10.635Z,100.00
2019-02-04T04:04:56.031Z,100.00
2019-02-04T04:07:41.426Z,100.00
2019-02-04T04:10:26.826Z,99.83
2019-02-04T04:13:12.130Z,100.00
2019-02-04T04:15:58.089Z,100.00
2019-02-04T04:18:43.462Z,99.85
2019-02-04T04:21:28.881Z,99.74
2019-02-04T04:24:14.286Z,99.68
2019-02-04T04:26:59.631Z,99.68
2019-02-04T04:29:45.458Z,99.53
2019-02-04T04:32:31.103Z,99.52
2019-02-04T04:35:16.492Z,99.43
2019-02-04T04:38:02.394Z,99.42
2019-02-04T04:40:47.754Z,99.40
2019-02-04T04:43:33.663Z,99.15
2019-02-04T04:46:19.259Z,99.15
2019-02-04T04:49:04.707Z,99.19
2019-02-04T04:51:50.139Z,99.13
2019-02-04T04:54:35.551Z,98.95
2019-02-04T04:57:20.798Z,98.72
2019-02-04T05:00:08.531Z,98.72
2019-02-04T05:02:54.131Z,98.65
2019-02-04T05:05:39.874Z,98.29
2019-02-04T05:08:25.857Z,98.50
2019-02-04T05:11:11.267Z,98.17
2019-02-04T05:13:56.750Z,98.17
2019-02-04T05:16:42.585Z,97.98
2019-02-04T05:19:27.936Z,97.76
2019-02-04T05:22:13.475Z,97.63
2019-02-04T05:25:00.209Z,97.65
2019-02-04T05:27:45.693Z,97.60
2019-02-04T05:30:31.063Z,97.15
2019-02-04T05:33:16.529Z,97.15
2019-02-04T05:36:01.885Z,96.55
2019-02-04T05:38:47.455Z,96.55
2019-02-04T05:41:33.377Z,96.23
2019-02-04T05:44:18.758Z,95.86
2019-02-04T05:47:05.329Z,95.90
2019-02-04T05:49:50.729Z,95.90
2019-02-04T05:52:36.041Z,95.73
2019-02-04T05:55:21.883Z,95.73
2019-02-04T05:58:07.153Z,95.86
2019-02-04T06:00:52.614Z,95.86
2019-02-04T06:03:38.362Z,95.67
2019-02-04T06:06:23.673Z,95.39
2019-02-04T06:09:09.025Z,95.17
2019-02-04T06:11:54.816Z,95.00
2019-02-04T06:14:40.151Z,95.00
2019-02-04T06:17:26.055Z,94.99
2019-02-04T06:20:13.937Z,94.56
2019-02-04T06:22:59.447Z,94.17
2019-02-04T06:25:44.780Z,93.96
2019-02-04T06:28:30.203Z,93.79
2019-02-04T06:31:16.192Z,93.91
2019-02-04T06:34:01.584Z,93.91
2019-02-04T06:36:47.021Z,93.89
2019-02-04T06:39:32.376Z,93.89
2019-02-04T06:42:17.716Z,93.77
2019-02-04T06:45:05.436Z,93.76
2019-02-04T06:47:51.947Z,93.76
2019-02-04T06:50:37.932Z,93.82
2019-02-04T06:53:23.495Z,93.96
2019-02-04T06:56:08.904Z,94.23
2019-02-04T06:58:54.296Z,94.23
2019-02-04T07:01:39.656Z,94.29
2019-02-04T07:04:26.676Z,94.29
2019-02-04T07:07:15.082Z,93.56
2019-02-04T07:10:00.334Z,93.56
2019-02-04T07:12:45.748Z,93.47
2019-02-04T07:15:31.124Z,93.47
2019-02-04T07:18:17.029Z,93.17
2019-02-04T07:21:02.369Z,93.17
2019-02-04T07:23:47.809Z,93.23
2019-02-04T07:26:33.130Z,93.20
2019-02-04T07:29:18.500Z,92.73
2019-02-04T07:32:04.275Z,92.44
2019-02-04T07:34:49.760Z,91.69
2019-02-04T07:37:35.045Z,91.71
2019-02-04T07:40:22.824Z,91.71
2019-02-04T07:43:08.556Z,91.11
2019-02-04T07:45:53.944Z,91.02
2019-02-04T07:48:40.317Z,90.82
2019-02-04T07:51:25.960Z,90.50
2019-02-04T07:54:11.737Z,90.32
2019-02-04T07:56:57.270Z,89.78
2019-02-04T07:59:42.663Z,89.14
2019-02-04T08:02:28.160Z,88.30
2019-02-04T08:05:13.973Z,88.24
2019-02-04T08:07:59.384Z,87.99
2019-02-04T08:10:44.828Z,87.58
2019-02-04T08:13:30.240Z,87.37
2019-02-04T08:16:15.784Z,86.81
2019-02-04T08:19:01.767Z,86.26
2019-02-04T08:21:47.105Z,85.92
2019-02-04T08:24:32.795Z,85.76
2019-02-04T08:27:18.405Z,84.42
2019-02-04T08:30:07.220Z,82.57
2019-02-04T08:32:52.927Z,82.57
2019-02-04T08:35:39.757Z,81.74
2019-02-04T08:38:25.357Z,80.95
2019-02-04T08:41:10.827Z,80.75
2019-02-04T08:43:56.225Z,81.03
2019-02-04T08:46:42.212Z,81.81
2019-02-04T08:49:27.827Z,81.22
2019-02-04T08:52:13.154Z,81.22
2019-02-04T08:54:58.477Z,80.89
2019-02-04T08:57:44.458Z,80.07
2019-02-04T09:00:30.613Z,80.89
2019-02-04T09:03:16.003Z,80.91
2019-02-04T09:06:01.363Z,80.20
2019-02-04T09:08:46.725Z,80.26
2019-02-04T09:11:32.048Z,79.80
2019-02-04T09:14:17.955Z,80.30
2019-02-04T09:17:03.296Z,79.60
2019-02-04T09:19:48.727Z,79.34
2019-02-04T09:22:34.030Z,78.89
2019-02-04T09:25:19.858Z,78.88
2019-02-04T09:28:06.005Z,79.21
2019-02-04T09:30:51.420Z,78.55
2019-02-04T09:33:36.850Z,78.27
2019-02-04T09:36:22.198Z,77.68
2019-02-04T09:39:09.205Z,77.58
2019-02-04T09:41:55.298Z,77.45
2019-02-04T09:44:40.547Z,77.81
2019-02-04T09:47:25.964Z,76.22
2019-02-04T09:50:21.437Z,76.47
2019-02-04T09:53:02.021Z,76.08
2019-02-04T09:55:47.356Z,75.25
2019-02-04T09:58:32.898Z,75.22
2019-02-04T10:01:18.233Z,75.89
2019-02-04T10:04:04.188Z,74.42
2019-02-04T10:06:49.692Z,74.34
2019-02-04T10:09:35.643Z,74.24
2019-02-04T10:12:21.669Z,74.72
2019-02-04T10:15:11.173Z,75.28
2019-02-04T10:17:56.544Z,74.57
2019-02-04T10:20:42.015Z,74.27
2019-02-04T10:23:27.796Z,74.10
2019-02-04T10:26:13.230Z,75.26
2019-02-04T10:28:59.043Z,74.18
2019-02-04T10:31:44.601Z,74.62
2019-02-04T10:34:30.264Z,75.13
2019-02-04T10:37:15.748Z,74.49
2019-02-04T10:40:01.082Z,74.92
2019-02-04T10:42:46.723Z,75.35
2019-02-04T10:45:32.338Z,73.88
2019-02-04T10:48:17.902Z,74.71
2019-02-04T10:51:03.904Z,74.13
2019-02-04T10:53:49.838Z,74.00
2019-02-04T10:56:35.569Z,74.07
2019-02-04T10:59:21.250Z,74.31
2019-02-04T11:02:06.988Z,73.02
2019-02-04T11:04:52.261Z,73.76
2019-02-04T11:07:37.585Z,73.13
2019-02-04T11:10:30.598Z,73.53
2019-02-04T11:13:17.957Z,72.97
2019-02-04T11:16:03.828Z,72.66
2019-02-04T11:18:49.444Z,72.74
2019-02-04T11:21:34.773Z,72.00
2019-02-04T11:24:20.095Z,71.90
2019-02-04T11:27:05.740Z,72.52
2019-02-04T11:29:51.328Z,72.13
2019-02-04T11:32:36.767Z,71.13
2019-02-04T11:35:22.146Z,69.72
2019-02-04T11:38:07.637Z,71.13
2019-02-04T11:40:59.056Z,70.02
2019-02-04T11:43:51.998Z,70.00
2019-02-04T11:46:38.125Z,68.85
2019-02-04T11:49:23.890Z,68.80
2019-02-04T11:52:09.746Z,69.24
2019-02-04T11:54:55.393Z,68.62
2019-02-04T11:57:40.760Z,68.73
2019-02-04T12:07:01.044Z,67.58
2019-02-04T12:09:46.418Z,68.55
2019-02-04T12:12:31.764Z,66.80
2019-02-04T12:15:18.553Z,68.09
2019-02-04T12:18:04.401Z,66.90
2019-02-04T12:20:50.044Z,67.00
2019-02-04T12:23:35.956Z,66.39
2019-02-04T12:26:21.808Z,66.35
2019-02-04T12:29:07.300Z,66.73
2019-02-04T12:31:52.603Z,66.20
2019-02-04T12:34:38.020Z,64.50
2019-02-04T12:37:24.081Z,65.92
2019-02-04T12:40:10.187Z,64.54
2019-02-04T12:42:55.638Z,65.34
2019-02-04T12:45:41.830Z,66.55
2019-02-04T12:48:27.149Z,65.91
2019-02-04T12:51:13.104Z,63.82
2019-02-04T12:53:58.540Z,64.95
2019-02-04T12:56:43.936Z,64.14
2019-02-04T12:59:29.291Z,65.84
2019-02-04T13:02:14.676Z,64.37
2019-02-04T13:05:00.206Z,64.29
2019-02-04T13:07:45.494Z,64.58
2019-02-04T13:10:31.134Z,63.77
2019-02-04T13:13:19.573Z,62.87
2019-02-04T13:16:05.281Z,63.32
2019-02-04T13:18:50.600Z,63.09
2019-02-04T13:21:45.057Z,62.62
2019-02-04T13:24:23.984Z,63.24
2019-02-04T13:27:09.468Z,63.87
2019-02-04T13:29:54.888Z,63.91
2019-02-04T13:32:40.152Z,64.57
2019-02-04T13:35:25.724Z,64.10
2019-02-04T13:38:11.761Z,65.43
2019-02-04T13:41:07.499Z,63.79
2019-02-04T13:43:45.131Z,65.04
2019-02-04T13:46:30.624Z,65.74
2019-02-04T13:49:16.088Z,65.19
2019-02-04T13:52:01.468Z,65.14
2019-02-04T13:54:46.971Z,65.57
2019-02-04T13:57:32.259Z,65.47
2019-02-04T14:00:17.987Z,64.66
2019-02-04T14:03:04.142Z,64.86
2019-02-04T14:05:52.127Z,65.13
2019-02-04T14:08:40.697Z,65.58
2019-02-04T14:11:26.734Z,65.06
2019-02-04T14:14:12.182Z,65.48
2019-02-04T14:16:57.468Z,64.71
2019-02-04T14:19:42.930Z,64.73
2019-02-04T14:22:28.208Z,64.63
2019-02-04T14:25:17.238Z,64.97
2019-02-04T14:28:03.630Z,65.18
2019-02-04T14:30:50.378Z,65.93
2019-02-04T14:33:35.793Z,65.27
2019-02-04T14:36:21.167Z,64.95
2019-02-04T14:39:11.323Z,65.35
2019-02-04T14:41:56.957Z,65.02
2019-02-04T14:45:39.519Z,65.80
2019-02-04T14:48:59.934Z,66.45
2019-02-04T14:51:57.566Z,66.20
2019-02-04T14:55:35.114Z,66.16
2019-02-04T14:58:35.270Z,65.77
2019-02-04T15:02:04.329Z,65.03
2019-02-04T15:05:23.243Z,65.92
2019-02-04T15:08:34.297Z,67.00
2019-02-04T15:11:41.556Z,65.89
2019-02-04T15:15:04.303Z,66.12
2019-02-04T15:18:41.619Z,65.73
2019-02-04T15:22:10.291Z,66.81
2019-02-04T15:25:17.431Z,65.96
2019-02-04T15:28:34.972Z,66.28
2019-02-04T15:31:53.359Z,65.67
2019-02-04T15:35:04.819Z,66.69
2019-02-04T15:38:22.697Z,67.23
2019-02-04T15:41:46.458Z,67.13
2019-02-04T15:45:07.004Z,66.87
2019-02-04T15:48:04.363Z,66.98
2019-02-04T15:51:15.620Z,67.18
2019-02-04T15:54:04.570Z,67.72
2019-02-04T15:56:51.686Z,68.24
2019-02-04T15:59:37.284Z,67.13
2019-02-04T16:02:22.862Z,67.20
2019-02-04T16:05:09.028Z,68.04
2019-02-04T16:07:55.114Z,68.16
2019-02-04T16:10:40.596Z,67.43
2019-02-04T16:13:25.799Z,67.81
2019-02-04T16:19:18.703Z,68.54
2019-02-04T16:22:04.995Z,68.76
2019-02-04T16:24:53.405Z,67.81
2019-02-04T16:27:39.742Z,68.24
2019-02-04T16:30:25.588Z,68.71
2019-02-04T16:33:11.935Z,68.72
2019-02-04T16:35:58.140Z,68.14
2019-02-04T16:38:50.512Z,68.20
2019-02-04T16:41:36.533Z,68.02
2019-02-04T16:44:22.556Z,69.17
2019-02-04T16:47:08.938Z,68.67
2019-02-04T16:49:57.206Z,67.82
2019-02-04T16:52:48.103Z,69.28
2019-02-04T16:55:37.385Z,69.12
2019-02-04T16:58:23.299Z,67.92
2019-02-04T17:01:09.247Z,67.67
2019-02-04T17:03:55.480Z,68.36
2019-02-04T17:06:41.647Z,67.64
2019-02-04T17:09:34.035Z,68.23
2019-02-04T17:12:20.745Z,67.88
2019-02-04T17:15:07.007Z,67.46
2019-02-04T17:17:55.620Z,67.23
2019-02-04T17:20:44.858Z,66.67
2019-02-04T17:23:30.660Z,67.33
2019-02-04T17:26:16.777Z,66.64
2019-02-04T17:29:03.605Z,67.03
2019-02-04T17:31:52.709Z,66.52
2019-02-04T17:34:39.023Z,67.94
2019-02-04T17:37:25.516Z,66.07
2019-02-04T17:40:16.232Z,66.81
2019-02-04T17:43:04.101Z,66.55
2019-02-04T17:46:01.063Z,66.22
2019-02-04T17:48:51.685Z,66.50
2019-02-04T17:51:37.868Z,66.76
2019-02-04T17:54:23.705Z,66.74
2019-02-04T17:57:09.862Z,65.82
2019-02-04T17:59:56.109Z,65.16
2019-02-04T18:02:44.423Z,65.69
2019-02-04T18:05:30.616Z,64.92
2019-02-04T18:08:19.401Z,64.55
2019-02-04T18:11:05.493Z,64.80
2019-02-04T18:13:51.863Z,65.27
2019-02-04T18:16:39.952Z,64.34
2019-02-04T18:19:26.770Z,64.70
2019-02-04T18:22:14.505Z,64.85
2019-02-04T18:25:00.469Z,65.31
2019-02-04T18:27:46.558Z,64.19
2019-02-04T18:30:32.953Z,64.39
2019-02-04T18:33:19.500Z,65.21
2019-02-04T18:36:05.734Z,65.17
2019-02-04T18:38:52.170Z,64.47
2019-02-04T18:41:38.361Z,64.38
2019-02-04T18:44:24.523Z,65.03
2019-02-04T18:47:11.264Z,65.09
2019-02-04T18:49:57.413Z,64.46
2019-02-04T18:52:43.874Z,64.03
2019-02-04T18:55:31.709Z,64.75
2019-02-04T18:58:17.580Z,64.31
2019-02-04T19:01:04.049Z,65.16
2019-02-04T19:03:52.309Z,64.04
2019-02-04T19:06:47.816Z,64.38
2019-02-04T19:09:32.251Z,63.74
2019-02-04T19:12:20.652Z,63.54
2019-02-04T19:15:11.616Z,63.47
2019-02-04T19:18:01.871Z,64.22
2019-02-04T19:20:55.557Z,63.52
2019-02-04T19:23:49.816Z,63.82
2019-02-04T19:26:36.651Z,63.96
2019-02-04T19:29:22.999Z,63.25
2019-02-04T19:32:09.384Z,63.98
2019-02-04T19:34:55.580Z,64.06
2019-02-04T19:37:41.867Z,63.19
2019-02-04T19:40:28.787Z,63.29
2019-02-04T19:43:14.608Z,63.30
2019-02-04T19:46:01.252Z,62.72
2019-02-04T19:48:47.367Z,63.59
2019-02-04T19:51:35.849Z,63.60
2019-02-04T19:54:24.686Z,63.82
2019-02-04T19:57:11.322Z,64.05
2019-02-04T19:59:57.489Z,63.32
2019-02-04T20:02:43.898Z,64.96
2019-02-04T20:05:30.622Z,64.66
2019-02-04T20:08:16.934Z,64.22
2019-02-04T20:11:04.755Z,65.40
2019-02-04T20:13:53.848Z,65.57
2019-02-04T20:16:40.484Z,65.59
2019-02-04T20:19:26.564Z,66.11
2019-02-04T20:22:12.539Z,65.86
2019-02-04T20:25:01.148Z,66.67
2019-02-04T20:27:47.553Z,67.66
2019-02-04T20:30:45.892Z,67.44
2019-02-04T20:33:29.427Z,67.68
2019-02-04T20:36:15.400Z,68.24
2019-02-04T20:39:04.191Z,68.25
2019-02-04T20:41:50.631Z,68.28
2019-02-04T20:44:38.284Z,68.66
2019-02-04T20:47:26.073Z,68.28
2019-02-04T20:50:23.972Z,68.39
2019-02-04T20:53:12.551Z,69.03
2019-02-04T20:55:59.164Z,69.16
2019-02-04T20:58:45.294Z,69.42
2019-02-04T21:01:31.303Z,69.34
2019-02-04T21:04:17.429Z,69.34
2019-02-04T21:07:03.675Z,69.57
2019-02-04T21:09:51.742Z,69.52
2019-02-04T21:12:37.933Z,69.91
2019-02-04T21:15:24.643Z,69.56
2019-02-04T21:18:10.928Z,69.03
2019-02-04T21:20:57.431Z,69.76
2019-02-04T21:23:43.282Z,70.21
2019-02-04T21:26:31.818Z,69.16
2019-02-04T21:29:19.300Z,69.83
2019-02-04T21:32:05.513Z,69.71
2019-02-04T21:34:51.659Z,69.49
2019-02-04T21:37:37.626Z,69.99
2019-02-04T21:40:23.614Z,69.71
2019-02-04T21:43:11.925Z,69.75
2019-02-04T21:45:58.167Z,70.44
2019-02-04T21:48:44.170Z,69.62
2019-02-04T21:51:30.403Z,69.92
2019-02-04T21:54:19.094Z,69.90
2019-02-04T21:57:08.091Z,69.61
2019-02-04T21:59:54.007Z,70.14
2019-02-04T22:02:39.913Z,69.51
2019-02-04T22:05:27.355Z,69.96
2019-02-04T22:08:13.302Z,69.61
2019-02-04T22:11:07.036Z,69.36
2019-02-04T22:13:53.379Z,69.94
2019-02-04T22:16:42.338Z,69.72
2019-02-04T22:19:28.482Z,69.95
2019-02-04T22:22:15.022Z,70.44
2019-02-04T22:25:00.907Z,70.12
2019-02-04T22:27:47.973Z,70.16
2019-02-04T22:30:34.382Z,70.07
2019-02-04T22:33:20.482Z,70.44
2019-02-04T22:36:07.214Z,70.30
2019-02-04T22:41:55.654Z,71.81
2019-02-04T22:44:43.057Z,71.16
2019-02-04T22:47:29.722Z,70.99
2019-02-04T22:50:18.278Z,70.52
2019-02-04T22:56:08.037Z,70.15
2019-02-04T23:01:53.720Z,70.51
2019-02-04T23:04:42.038Z,69.84
2019-02-04T23:07:30.343Z,69.89
2019-02-04T23:10:16.318Z,69.70
2019-02-04T23:13:04.694Z,70.02
2019-02-04T23:15:50.682Z,70.12
2019-02-04T23:18:36.589Z,70.38
2019-02-04T23:21:22.837Z,70.18
2019-02-04T23:24:09.364Z,70.40
2019-02-04T23:26:55.237Z,70.12
2019-02-04T23:29:41.468Z,70.35
2019-02-04T23:32:27.286Z,70.97
2019-02-04T23:35:13.431Z,70.45
2019-02-04T23:37:59.936Z,70.42
2019-02-04T23:40:46.252Z,70.35
2019-02-04T23:43:33.750Z,70.55
2019-02-04T23:46:21.123Z,70.40
2019-02-04T23:49:07.069Z,70.87
2019-02-04T23:51:52.990Z,71.07
2019-02-04T23:54:38.992Z,71.77
2019-02-04T23:57:25.494Z,71.85
